Avoca, Minnesota
Current Conditions -  °F | °C
As of 8:16 AM on Wednesday 26 Nov 2014 (Local Time) from KDVP Reporting Station
Haze Haze  
Wind Chill:   Ceiling: 800
Heat Index: 22°   Visibility: 4mi
Dew Point: 21°   Wind: 23mph
Humidity: 97%   Direction: 360°N
Pressure: 30.05"   Gusts: 28mph
Location:  43.95°N, 95.65°W
Report Text: KDVP 261416Z AUTO 36020G24KT 4SM BR OVC008 M06/M06 A3005 RMK AO2 T10571061
Loading
Personal Weather Stations






























Interactive Weather Map New forecast layout! Learn more

10-Day Weather Forecast

Advertisements
Track Severe Weather on mobile